sensor_id;sensor_type;location;lat;lon;timestamp;temperature;humidity
29713;DHT22;16623;53.632;10.016;2023-05-23T00:02:21;16.80;99.90
29713;DHT22;16623;53.632;10.016;2023-05-23T00:04:47;16.80;99.90
29713;DHT22;16623;53.632;10.016;2023-05-23T00:07:12;16.80;99.90
29713;DHT22;16623;53.632;10.016;2023-05-23T00:09:38;16.80;99.90
29713;DHT22;16623;53.632;10.016;2023-05-23T00:12:04;16.70;99.90
29713;DHT22;16623;53.632;10.016;2023-05-23T00:14:29;16.70;99.90
29713;DHT22;16623;53.632;10.016;2023-05-23T00:16:59;16.70;99.90
29713;DHT22;16623;53.632;10.016;2023-05-23T00:19:25;16.70;99.90
29713;DHT22;16623;53.632;10.016;2023-05-23T00:21:51;16.70;99.90
29713;DHT22;16623;53.632;10.016;2023-05-23T00:24:20;16.70;99.90
29713;DHT22;16623;53.632;10.016;2023-05-23T00:26:46;16.70;99.90
29713;DHT22;16623;53.632;10.016;2023-05-23T00:29:11;16.70;99.90
29713;DHT22;16623;53.632;10.016;2023-05-23T00:31:44;16.60;99.90
29713;DHT22;16623;53.632;10.016;2023-05-23T00:34:14;16.60;99.90
29713;DHT22;16623;53.632;10.016;2023-05-23T00:36:40;16.60;99.90
29713;DHT22;16623;53.632;10.016;2023-05-23T00:39:07;16.60;99.90
29713;DHT22;16623;53.632;10.016;2023-05-23T00:41:33;16.50;99.90
29713;DHT22;16623;53.632;10.016;2023-05-23T00:44:00;16.60;99.90
29713;DHT22;16623;53.632;10.016;2023-05-23T00:46:26;16.60;99.90
29713;DHT22;16623;53.632;10.016;2023-05-23T00:48:53;16.60;99.90
29713;DHT22;16623;53.632;10.016;2023-05-23T00:51:20;16.60;99.90
29713;DHT22;16623;53.632;10.016;2023-05-23T00:53:46;16.60;99.90
29713;DHT22;16623;53.632;10.016;2023-05-23T00:56:12;16.60;99.90
29713;DHT22;16623;53.632;10.016;2023-05-23T00:58:38;16.60;99.90
29713;DHT22;16623;53.632;10.016;2023-05-23T01:01:06;16.60;99.90
29713;DHT22;16623;53.632;10.016;2023-05-23T01:03:32;16.60;99.90
29713;DHT22;16623;53.632;10.016;2023-05-23T01:05:58;16.60;99.90
29713;DHT22;16623;53.632;10.016;2023-05-23T01:08:23;16.60;99.90
29713;DHT22;16623;53.632;10.016;2023-05-23T01:10:50;16.60;99.90
29713;DHT22;16623;53.632;10.016;2023-05-23T01:13:41;16.60;99.90
29713;DHT22;16623;53.632;10.016;2023-05-23T01:16:15;16.50;99.90
29713;DHT22;16623;53.632;10.016;2023-05-23T01:18:52;16.50;99.90
29713;DHT22;16623;53.632;10.016;2023-05-23T01:21:23;16.40;99.90
29713;DHT22;16623;53.632;10.016;2023-05-23T01:24:21;16.40;99.90
29713;DHT22;16623;53.632;10.016;2023-05-23T01:27:18;16.40;99.90
29713;DHT22;16623;53.632;10.016;2023-05-23T01:29:51;16.40;99.90
29713;DHT22;16623;53.632;10.016;2023-05-23T01:32:19;16.40;99.90
29713;DHT22;16623;53.632;10.016;2023-05-23T01:34:47;16.50;99.90
29713;DHT22;16623;53.632;10.016;2023-05-23T01:37:13;16.50;99.90
29713;DHT22;16623;53.632;10.016;2023-05-23T01:39:42;16.50;99.90
29713;DHT22;16623;53.632;10.016;2023-05-23T01:42:08;16.60;99.90
29713;DHT22;16623;53.632;10.016;2023-05-23T01:44:34;16.60;99.90
29713;DHT22;16623;53.632;10.016;2023-05-23T01:47:02;16.60;99.90
29713;DHT22;16623;53.632;10.016;2023-05-23T01:49:28;16.50;99.90
29713;DHT22;16623;53.632;10.016;2023-05-23T01:51:55;16.50;99.90
29713;DHT22;16623;53.632;10.016;2023-05-23T01:54:21;16.50;99.90
29713;DHT22;16623;53.632;10.016;2023-05-23T01:56:47;16.50;99.90
29713;DHT22;16623;53.632;10.016;2023-05-23T01:59:13;16.50;99.90
29713;DHT22;16623;53.632;10.016;2023-05-23T02:01:39;16.50;99.90
29713;DHT22;16623;53.632;10.016;2023-05-23T02:04:05;16.50;99.90
29713;DHT22;16623;53.632;10.016;2023-05-23T02:06:31;16.50;99.90
29713;DHT22;16623;53.632;10.016;2023-05-23T02:08:56;16.50;99.90
29713;DHT22;16623;53.632;10.016;2023-05-23T02:11:22;16.60;99.90
29713;DHT22;16623;53.632;10.016;2023-05-23T02:13:47;16.60;99.90
29713;DHT22;16623;53.632;10.016;2023-05-23T02:16:13;16.50;99.90
29713;DHT22;16623;53.632;10.016;2023-05-23T02:18:40;16.50;99.90
29713;DHT22;16623;53.632;10.016;2023-05-23T02:21:05;16.50;99.90
29713;DHT22;16623;53.632;10.016;2023-05-23T02:23:31;16.40;99.90
29713;DHT22;16623;53.632;10.016;2023-05-23T02:25:56;16.30;99.90
29713;DHT22;16623;53.632;10.016;2023-05-23T02:28:22;16.30;99.90
29713;DHT22;16623;53.632;10.016;2023-05-23T02:30:47;16.20;99.90
29713;DHT22;16623;53.632;10.016;2023-05-23T02:33:13;16.20;99.90
29713;DHT22;16623;53.632;10.016;2023-05-23T02:35:38;16.10;99.90
29713;DHT22;16623;53.632;10.016;2023-05-23T02:38:04;16.00;99.90
29713;DHT22;16623;53.632;10.016;2023-05-23T02:40:30;16.00;99.90
29713;DHT22;16623;53.632;10.016;2023-05-23T02:42:55;16.00;99.90
29713;DHT22;16623;53.632;10.016;2023-05-23T02:45:22;16.00;99.90
29713;DHT22;16623;53.632;10.016;2023-05-23T02:47:47;16.00;99.90
29713;DHT22;16623;53.632;10.016;2023-05-23T02:50:13;15.90;99.90
29713;DHT22;16623;53.632;10.016;2023-05-23T02:52:39;15.90;99.90
29713;DHT22;16623;53.632;10.016;2023-05-23T02:55:07;15.90;99.90
29713;DHT22;16623;53.632;10.016;2023-05-23T02:57:32;15.80;99.90
29713;DHT22;16623;53.632;10.016;2023-05-23T02:59:58;15.80;99.90
29713;DHT22;16623;53.632;10.016;2023-05-23T03:02:24;15.80;99.90
29713;DHT22;16623;53.632;10.016;2023-05-23T03:04:50;15.80;99.90
29713;DHT22;16623;53.632;10.016;2023-05-23T03:07:15;15.80;99.90
29713;DHT22;16623;53.632;10.016;2023-05-23T03:09:41;15.80;99.90
29713;DHT22;16623;53.632;10.016;2023-05-23T03:12:06;15.70;99.90
29713;DHT22;16623;53.632;10.016;2023-05-23T03:14:32;15.70;99.90
29713;DHT22;16623;53.632;10.016;2023-05-23T03:16:57;15.70;99.90
29713;DHT22;16623;53.632;10.016;2023-05-23T03:19:23;15.60;99.90
29713;DHT22;16623;53.632;10.016;2023-05-23T03:21:49;15.60;99.90
29713;DHT22;16623;53.632;10.016;2023-05-23T03:24:16;15.50;99.90
29713;DHT22;16623;53.632;10.016;2023-05-23T03:26:41;15.50;99.90
29713;DHT22;16623;53.632;10.016;2023-05-23T03:29:07;15.40;99.90
29713;DHT22;16623;53.632;10.016;2023-05-23T03:31:35;15.40;99.90
29713;DHT22;16623;53.632;10.016;2023-05-23T03:34:01;15.40;99.90
29713;DHT22;16623;53.632;10.016;2023-05-23T03:36:26;15.40;99.90
29713;DHT22;16623;53.632;10.016;2023-05-23T03:38:52;15.30;99.90
29713;DHT22;16623;53.632;10.016;2023-05-23T03:41:18;15.30;99.90
29713;DHT22;16623;53.632;10.016;2023-05-23T03:43:44;15.20;99.90
29713;DHT22;16623;53.632;10.016;2023-05-23T03:46:09;15.20;99.90
29713;DHT22;16623;53.632;10.016;2023-05-23T03:48:35;15.20;99.90
29713;DHT22;16623;53.632;10.016;2023-05-23T03:51:01;15.20;99.90
29713;DHT22;16623;53.632;10.016;2023-05-23T03:53:27;15.20;99.90
29713;DHT22;16623;53.632;10.016;2023-05-23T03:55:52;15.20;99.90
29713;DHT22;16623;53.632;10.016;2023-05-23T03:58:19;15.20;99.90
29713;DHT22;16623;53.632;10.016;2023-05-23T04:00:45;15.30;99.90
29713;DHT22;16623;53.632;10.016;2023-05-23T04:03:10;15.30;99.90
29713;DHT22;16623;53.632;10.016;2023-05-23T04:05:39;15.30;99.90
29713;DHT22;16623;53.632;10.016;2023-05-23T04:08:05;15.30;99.90
29713;DHT22;16623;53.632;10.016;2023-05-23T04:10:31;15.20;99.90
29713;DHT22;16623;53.632;10.016;2023-05-23T04:12:56;15.10;99.90
29713;DHT22;16623;53.632;10.016;2023-05-23T04:15:23;15.10;99.90
29713;DHT22;16623;53.632;10.016;2023-05-23T04:17:49;15.10;99.90
29713;DHT22;16623;53.632;10.016;2023-05-23T04:20:16;15.10;99.90
29713;DHT22;16623;53.632;10.016;2023-05-23T04:22:41;15.10;99.90
29713;DHT22;16623;53.632;10.016;2023-05-23T04:25:08;15.00;99.90
29713;DHT22;16623;53.632;10.016;2023-05-23T04:27:34;15.00;99.90
29713;DHT22;16623;53.632;10.016;2023-05-23T04:30:00;14.90;99.90
29713;DHT22;16623;53.632;10.016;2023-05-23T04:32:26;14.90;99.90
29713;DHT22;16623;53.632;10.016;2023-05-23T04:34:51;14.90;99.90
29713;DHT22;16623;53.632;10.016;2023-05-23T04:37:20;14.90;99.90
29713;DHT22;16623;53.632;10.016;2023-05-23T04:39:47;15.00;99.90
29713;DHT22;16623;53.632;10.016;2023-05-23T04:42:12;15.00;99.90
29713;DHT22;16623;53.632;10.016;2023-05-23T04:44:38;15.00;99.90
29713;DHT22;16623;53.632;10.016;2023-05-23T04:47:03;15.00;99.90
29713;DHT22;16623;53.632;10.016;2023-05-23T04:49:29;14.90;99.90
29713;DHT22;16623;53.632;10.016;2023-05-23T04:51:58;14.90;99.90
29713;DHT22;16623;53.632;10.016;2023-05-23T04:54:24;14.90;99.90
29713;DHT22;16623;53.632;10.016;2023-05-23T04:56:50;14.90;99.90
29713;DHT22;16623;53.632;10.016;2023-05-23T04:59:15;14.90;99.90
29713;DHT22;16623;53.632;10.016;2023-05-23T05:01:41;14.90;99.90
29713;DHT22;16623;53.632;10.016;2023-05-23T05:04:07;14.90;99.90
29713;DHT22;16623;53.632;10.016;2023-05-23T05:06:32;14.80;99.90
29713;DHT22;16623;53.632;10.016;2023-05-23T05:08:58;14.80;99.90
29713;DHT22;16623;53.632;10.016;2023-05-23T05:11:25;14.80;99.90
29713;DHT22;16623;53.632;10.016;2023-05-23T05:13:51;14.90;99.90
29713;DHT22;16623;53.632;10.016;2023-05-23T05:16:17;14.80;99.90
29713;DHT22;16623;53.632;10.016;2023-05-23T05:18:42;14.90;99.90
29713;DHT22;16623;53.632;10.016;2023-05-23T05:21:08;14.80;99.90
29713;DHT22;16623;53.632;10.016;2023-05-23T05:23:34;14.80;99.90
29713;DHT22;16623;53.632;10.016;2023-05-23T05:26:00;14.80;99.90
29713;DHT22;16623;53.632;10.016;2023-05-23T05:28:26;14.70;99.90
29713;DHT22;16623;53.632;10.016;2023-05-23T05:30:52;14.80;99.90
29713;DHT22;16623;53.632;10.016;2023-05-23T05:33:20;14.80;99.90
29713;DHT22;16623;53.632;10.016;2023-05-23T05:35:49;14.70;99.90
29713;DHT22;16623;53.632;10.016;2023-05-23T05:38:18;14.80;99.90
29713;DHT22;16623;53.632;10.016;2023-05-23T05:40:43;14.80;99.90
29713;DHT22;16623;53.632;10.016;2023-05-23T05:43:09;14.80;99.90
29713;DHT22;16623;53.632;10.016;2023-05-23T05:45:35;14.80;99.90
29713;DHT22;16623;53.632;10.016;2023-05-23T05:48:01;14.80;99.90
29713;DHT22;16623;53.632;10.016;2023-05-23T05:50:27;14.80;99.90
29713;DHT22;16623;53.632;10.016;2023-05-23T05:52:52;14.80;99.90
29713;DHT22;16623;53.632;10.016;2023-05-23T05:55:18;14.80;99.90
29713;DHT22;16623;53.632;10.016;2023-05-23T05:57:43;14.70;99.90
29713;DHT22;16623;53.632;10.016;2023-05-23T06:00:11;14.80;99.90
29713;DHT22;16623;53.632;10.016;2023-05-23T06:02:40;14.80;99.90
29713;DHT22;16623;53.632;10.016;2023-05-23T06:05:08;14.80;99.90
29713;DHT22;16623;53.632;10.016;2023-05-23T06:07:39;14.80;99.90
29713;DHT22;16623;53.632;10.016;2023-05-23T06:10:06;14.90;99.90
29713;DHT22;16623;53.632;10.016;2023-05-23T06:12:32;14.90;99.90
29713;DHT22;16623;53.632;10.016;2023-05-23T06:14:58;14.90;99.90
29713;DHT22;16623;53.632;10.016;2023-05-23T06:17:23;15.00;99.90
29713;DHT22;16623;53.632;10.016;2023-05-23T06:19:49;15.00;99.90
29713;DHT22;16623;53.632;10.016;2023-05-23T06:22:14;14.90;99.90
29713;DHT22;16623;53.632;10.016;2023-05-23T06:24:40;14.90;99.90
29713;DHT22;16623;53.632;10.016;2023-05-23T06:27:06;14.90;99.90
29713;DHT22;16623;53.632;10.016;2023-05-23T06:29:31;14.90;99.90
29713;DHT22;16623;53.632;10.016;2023-05-23T06:31:57;14.90;99.90
29713;DHT22;16623;53.632;10.016;2023-05-23T06:34:22;14.80;99.90
29713;DHT22;16623;53.632;10.016;2023-05-23T06:36:48;14.80;99.90
29713;DHT22;16623;53.632;10.016;2023-05-23T06:39:14;14.70;99.90
29713;DHT22;16623;53.632;10.016;2023-05-23T06:41:39;14.60;99.90
29713;DHT22;16623;53.632;10.016;2023-05-23T06:44:05;14.60;99.90
29713;DHT22;16623;53.632;10.016;2023-05-23T06:46:31;14.60;99.90
29713;DHT22;16623;53.632;10.016;2023-05-23T06:48:56;14.60;99.90
29713;DHT22;16623;53.632;10.016;2023-05-23T06:51:22;14.60;99.90
29713;DHT22;16623;53.632;10.016;2023-05-23T06:53:48;14.60;99.90
29713;DHT22;16623;53.632;10.016;2023-05-23T06:56:14;14.60;99.90
29713;DHT22;16623;53.632;10.016;2023-05-23T06:58:39;14.70;99.90
29713;DHT22;16623;53.632;10.016;2023-05-23T07:01:05;14.60;99.90
29713;DHT22;16623;53.632;10.016;2023-05-23T07:03:31;14.60;99.90
29713;DHT22;16623;53.632;10.016;2023-05-23T07:05:57;14.50;99.90
29713;DHT22;16623;53.632;10.016;2023-05-23T07:08:22;14.40;99.90
29713;DHT22;16623;53.632;10.016;2023-05-23T07:10:48;14.40;99.90
29713;DHT22;16623;53.632;10.016;2023-05-23T07:13:13;14.40;99.90
29713;DHT22;16623;53.632;10.016;2023-05-23T07:15:39;14.30;99.90
29713;DHT22;16623;53.632;10.016;2023-05-23T07:18:04;14.20;99.90
29713;DHT22;16623;53.632;10.016;2023-05-23T07:20:32;14.20;99.90
29713;DHT22;16623;53.632;10.016;2023-05-23T07:22:58;14.20;99.90
29713;DHT22;16623;53.632;10.016;2023-05-23T07:25:24;14.10;99.90
29713;DHT22;16623;53.632;10.016;2023-05-23T07:27:50;14.20;99.90
29713;DHT22;16623;53.632;10.016;2023-05-23T07:30:19;14.20;99.90
29713;DHT22;16623;53.632;10.016;2023-05-23T07:32:46;14.20;99.90
29713;DHT22;16623;53.632;10.016;2023-05-23T07:35:12;14.20;99.90
29713;DHT22;16623;53.632;10.016;2023-05-23T07:37:37;14.30;99.90
29713;DHT22;16623;53.632;10.016;2023-05-23T07:40:04;14.40;99.90
29713;DHT22;16623;53.632;10.016;2023-05-23T07:42:30;14.40;99.90
29713;DHT22;16623;53.632;10.016;2023-05-23T07:44:55;14.30;99.90
29713;DHT22;16623;53.632;10.016;2023-05-23T07:47:21;14.30;99.90
29713;DHT22;16623;53.632;10.016;2023-05-23T07:49:49;14.30;99.90
29713;DHT22;16623;53.632;10.016;2023-05-23T07:52:16;14.40;99.90
29713;DHT22;16623;53.632;10.016;2023-05-23T07:54:42;14.50;99.90
29713;DHT22;16623;53.632;10.016;2023-05-23T07:57:08;14.60;99.90
29713;DHT22;16623;53.632;10.016;2023-05-23T07:59:34;14.60;99.90
29713;DHT22;16623;53.632;10.016;2023-05-23T08:02:00;14.50;99.90
29713;DHT22;16623;53.632;10.016;2023-05-23T08:04:26;14.60;99.90
29713;DHT22;16623;53.632;10.016;2023-05-23T08:06:52;14.60;99.90
29713;DHT22;16623;53.632;10.016;2023-05-23T08:09:18;14.60;99.90
29713;DHT22;16623;53.632;10.016;2023-05-23T08:11:44;14.60;99.90
29713;DHT22;16623;53.632;10.016;2023-05-23T08:14:09;14.70;99.90
29713;DHT22;16623;53.632;10.016;2023-05-23T08:16:35;14.70;99.90
29713;DHT22;16623;53.632;10.016;2023-05-23T08:19:02;14.70;99.90
29713;DHT22;16623;53.632;10.016;2023-05-23T08:21:27;14.70;99.90
29713;DHT22;16623;53.632;10.016;2023-05-23T08:23:53;14.80;99.90
29713;DHT22;16623;53.632;10.016;2023-05-23T08:26:18;14.80;99.90
29713;DHT22;16623;53.632;10.016;2023-05-23T08:28:45;14.70;99.90
29713;DHT22;16623;53.632;10.016;2023-05-23T08:31:10;14.70;99.90
29713;DHT22;16623;53.632;10.016;2023-05-23T08:33:36;14.60;99.90
29713;DHT22;16623;53.632;10.016;2023-05-23T08:36:02;14.50;99.90
29713;DHT22;16623;53.632;10.016;2023-05-23T08:38:28;14.50;99.90
29713;DHT22;16623;53.632;10.016;2023-05-23T08:40:54;14.40;99.90
29713;DHT22;16623;53.632;10.016;2023-05-23T08:43:20;14.50;99.90
29713;DHT22;16623;53.632;10.016;2023-05-23T08:45:48;14.40;99.90
29713;DHT22;16623;53.632;10.016;2023-05-23T08:48:18;14.30;99.90
29713;DHT22;16623;53.632;10.016;2023-05-23T08:50:46;14.30;99.90
29713;DHT22;16623;53.632;10.016;2023-05-23T08:53:14;14.30;99.90
29713;DHT22;16623;53.632;10.016;2023-05-23T08:55:45;14.20;99.90
29713;DHT22;16623;53.632;10.016;2023-05-23T08:58:12;14.10;99.90
29713;DHT22;16623;53.632;10.016;2023-05-23T09:00:38;14.10;99.90
29713;DHT22;16623;53.632;10.016;2023-05-23T09:03:04;14.00;99.90
29713;DHT22;16623;53.632;10.016;2023-05-23T09:05:30;14.10;99.90
29713;DHT22;16623;53.632;10.016;2023-05-23T09:07:56;14.00;99.90
29713;DHT22;16623;53.632;10.016;2023-05-23T09:10:22;13.90;99.90
29713;DHT22;16623;53.632;10.016;2023-05-23T09:12:48;14.00;99.90
29713;DHT22;16623;53.632;10.016;2023-05-23T09:15:13;13.90;99.90
29713;DHT22;16623;53.632;10.016;2023-05-23T09:17:41;13.90;99.90
29713;DHT22;16623;53.632;10.016;2023-05-23T09:20:12;13.80;99.90
29713;DHT22;16623;53.632;10.016;2023-05-23T09:22:39;13.80;99.90
29713;DHT22;16623;53.632;10.016;2023-05-23T09:25:05;13.80;99.90
29713;DHT22;16623;53.632;10.016;2023-05-23T09:27:31;13.70;99.90
29713;DHT22;16623;53.632;10.016;2023-05-23T09:29:56;13.60;99.90
29713;DHT22;16623;53.632;10.016;2023-05-23T09:32:22;13.60;99.90
29713;DHT22;16623;53.632;10.016;2023-05-23T09:34:59;13.40;99.90
29713;DHT22;16623;53.632;10.016;2023-05-23T09:37:39;13.30;99.90
29713;DHT22;16623;53.632;10.016;2023-05-23T09:40:13;13.10;99.90
29713;DHT22;16623;53.632;10.016;2023-05-23T09:42:43;13.20;99.90
29713;DHT22;16623;53.632;10.016;2023-05-23T09:45:12;13.20;99.90
29713;DHT22;16623;53.632;10.016;2023-05-23T09:47:38;13.20;99.90
29713;DHT22;16623;53.632;10.016;2023-05-23T09:50:04;13.20;99.90
29713;DHT22;16623;53.632;10.016;2023-05-23T09:52:36;13.00;99.90
29713;DHT22;16623;53.632;10.016;2023-05-23T09:55:06;13.00;99.90
29713;DHT22;16623;53.632;10.016;2023-05-23T09:57:38;13.10;99.90
29713;DHT22;16623;53.632;10.016;2023-05-23T10:00:05;13.00;99.90
29713;DHT22;16623;53.632;10.016;2023-05-23T10:02:54;13.00;99.90
29713;DHT22;16623;53.632;10.016;2023-05-23T10:08:08;12.80;99.90
29713;DHT22;16623;53.632;10.016;2023-05-23T10:13:28;12.90;99.90
29713;DHT22;16623;53.632;10.016;2023-05-23T10:16:05;13.00;99.90
29713;DHT22;16623;53.632;10.016;2023-05-23T10:18:39;13.10;99.90
29713;DHT22;16623;53.632;10.016;2023-05-23T10:21:11;13.00;99.90
29713;DHT22;16623;53.632;10.016;2023-05-23T10:23:49;12.90;99.90
29713;DHT22;16623;53.632;10.016;2023-05-23T10:26:16;12.90;99.90
29713;DHT22;16623;53.632;10.016;2023-05-23T10:28:43;12.90;99.90
29713;DHT22;16623;53.632;10.016;2023-05-23T10:31:10;12.90;99.90
29713;DHT22;16623;53.632;10.016;2023-05-23T10:33:40;12.90;99.90
29713;DHT22;16623;53.632;10.016;2023-05-23T10:37:14;12.90;99.90
29713;DHT22;16623;53.632;10.016;2023-05-23T10:39:31;13.00;99.90
29713;DHT22;16623;53.632;10.016;2023-05-23T10:42:02;13.10;99.90
29713;DHT22;16623;53.632;10.016;2023-05-23T10:44:29;13.20;99.90
29713;DHT22;16623;53.632;10.016;2023-05-23T10:47:00;13.30;99.90
29713;DHT22;16623;53.632;10.016;2023-05-23T10:49:48;13.30;99.90
29713;DHT22;16623;53.632;10.016;2023-05-23T10:52:16;13.40;99.90
29713;DHT22;16623;53.632;10.016;2023-05-23T10:54:45;13.40;99.90
29713;DHT22;16623;53.632;10.016;2023-05-23T10:57:14;13.30;99.90
29713;DHT22;16623;53.632;10.016;2023-05-23T10:59:58;13.40;99.90
29713;DHT22;16623;53.632;10.016;2023-05-23T11:02:26;13.40;99.90
29713;DHT22;16623;53.632;10.016;2023-05-23T11:05:19;13.50;99.90
29713;DHT22;16623;53.632;10.016;2023-05-23T11:08:07;13.60;99.90
29713;DHT22;16623;53.632;10.016;2023-05-23T11:10:57;13.50;99.90
29713;DHT22;16623;53.632;10.016;2023-05-23T11:13:23;13.50;99.90
29713;DHT22;16623;53.632;10.016;2023-05-23T11:15:49;13.50;99.90
29713;DHT22;16623;53.632;10.016;2023-05-23T11:18:26;13.50;99.90
29713;DHT22;16623;53.632;10.016;2023-05-23T11:20:53;13.60;99.90
29713;DHT22;16623;53.632;10.016;2023-05-23T11:23:20;13.70;99.90
29713;DHT22;16623;53.632;10.016;2023-05-23T11:25:52;13.60;99.90
29713;DHT22;16623;53.632;10.016;2023-05-23T11:28:19;13.80;99.90
29713;DHT22;16623;53.632;10.016;2023-05-23T11:30:48;13.80;99.90
29713;DHT22;16623;53.632;10.016;2023-05-23T11:33:15;13.90;99.90
29713;DHT22;16623;53.632;10.016;2023-05-23T11:35:45;13.80;99.90
29713;DHT22;16623;53.632;10.016;2023-05-23T11:38:14;14.10;99.90
29713;DHT22;16623;53.632;10.016;2023-05-23T11:40:42;14.30;99.90
29713;DHT22;16623;53.632;10.016;2023-05-23T11:43:12;14.60;99.90
29713;DHT22;16623;53.632;10.016;2023-05-23T11:45:39;14.90;99.90
29713;DHT22;16623;53.632;10.016;2023-05-23T11:48:06;14.90;99.90
29713;DHT22;16623;53.632;10.016;2023-05-23T11:50:32;15.00;99.90
29713;DHT22;16623;53.632;10.016;2023-05-23T11:52:59;15.00;99.90
29713;DHT22;16623;53.632;10.016;2023-05-23T11:55:24;15.00;99.90
29713;DHT22;16623;53.632;10.016;2023-05-23T11:58:02;15.00;99.90
29713;DHT22;16623;53.632;10.016;2023-05-23T12:02:54;15.10;99.90
29713;DHT22;16623;53.632;10.016;2023-05-23T12:05:20;15.20;99.90
29713;DHT22;16623;53.632;10.016;2023-05-23T12:07:47;15.40;99.90
29713;DHT22;16623;53.632;10.016;2023-05-23T12:10:17;15.40;99.90
29713;DHT22;16623;53.632;10.016;2023-05-23T12:12:43;15.20;99.90
29713;DHT22;16623;53.632;10.016;2023-05-23T12:15:10;15.00;99.90
29713;DHT22;16623;53.632;10.016;2023-05-23T12:17:45;15.00;99.90
29713;DHT22;16623;53.632;10.016;2023-05-23T12:20:11;15.10;99.90
29713;DHT22;16623;53.632;10.016;2023-05-23T12:22:37;15.30;99.90
29713;DHT22;16623;53.632;10.016;2023-05-23T12:25:03;15.30;99.90
29713;DHT22;16623;53.632;10.016;2023-05-23T12:27:34;15.30;99.90
29713;DHT22;16623;53.632;10.016;2023-05-23T12:30:12;15.60;99.90
29713;DHT22;16623;53.632;10.016;2023-05-23T12:32:39;15.70;99.90
29713;DHT22;16623;53.632;10.016;2023-05-23T12:35:07;15.50;99.90
29713;DHT22;16623;53.632;10.016;2023-05-23T12:37:33;15.40;99.90
29713;DHT22;16623;53.632;10.016;2023-05-23T12:40:11;15.50;99.90
29713;DHT22;16623;53.632;10.016;2023-05-23T12:42:50;15.50;99.90
29713;DHT22;16623;53.632;10.016;2023-05-23T12:45:23;15.80;99.90
29713;DHT22;16623;53.632;10.016;2023-05-23T12:47:49;16.00;99.90
29713;DHT22;16623;53.632;10.016;2023-05-23T12:50:15;16.20;99.90
29713;DHT22;16623;53.632;10.016;2023-05-23T12:52:41;16.20;99.90
29713;DHT22;16623;53.632;10.016;2023-05-23T12:55:08;16.30;99.90
29713;DHT22;16623;53.632;10.016;2023-05-23T12:57:34;16.30;99.90
29713;DHT22;16623;53.632;10.016;2023-05-23T13:00:00;16.50;99.90
29713;DHT22;16623;53.632;10.016;2023-05-23T13:02:27;16.40;99.90
29713;DHT22;16623;53.632;10.016;2023-05-23T13:04:53;16.40;99.90
29713;DHT22;16623;53.632;10.016;2023-05-23T13:07:19;16.30;99.90
29713;DHT22;16623;53.632;10.016;2023-05-23T13:09:45;16.10;99.90
29713;DHT22;16623;53.632;10.016;2023-05-23T13:12:10;16.00;99.90
29713;DHT22;16623;53.632;10.016;2023-05-23T13:14:37;15.90;99.90
29713;DHT22;16623;53.632;10.016;2023-05-23T13:17:02;15.70;99.90
29713;DHT22;16623;53.632;10.016;2023-05-23T13:19:28;15.50;99.90
29713;DHT22;16623;53.632;10.016;2023-05-23T13:21:53;15.30;99.90
29713;DHT22;16623;53.632;10.016;2023-05-23T13:24:19;15.10;99.90
29713;DHT22;16623;53.632;10.016;2023-05-23T13:26:45;15.00;99.90
29713;DHT22;16623;53.632;10.016;2023-05-23T13:29:10;15.00;99.90
29713;DHT22;16623;53.632;10.016;2023-05-23T13:31:36;15.00;99.90
29713;DHT22;16623;53.632;10.016;2023-05-23T13:34:02;14.80;99.90
29713;DHT22;16623;53.632;10.016;2023-05-23T13:36:27;14.80;99.90
29713;DHT22;16623;53.632;10.016;2023-05-23T13:38:53;14.70;99.90
29713;DHT22;16623;53.632;10.016;2023-05-23T13:41:19;14.70;99.90
29713;DHT22;16623;53.632;10.016;2023-05-23T13:43:44;14.70;99.90
29713;DHT22;16623;53.632;10.016;2023-05-23T13:46:11;14.70;99.90
29713;DHT22;16623;53.632;10.016;2023-05-23T13:48:37;14.80;99.90
29713;DHT22;16623;53.632;10.016;2023-05-23T13:51:03;14.80;99.90
29713;DHT22;16623;53.632;10.016;2023-05-23T13:53:30;14.90;99.90
29713;DHT22;16623;53.632;10.016;2023-05-23T13:55:56;15.20;99.90
29713;DHT22;16623;53.632;10.016;2023-05-23T13:58:22;15.40;99.90
29713;DHT22;16623;53.632;10.016;2023-05-23T14:00:47;15.20;99.90
29713;DHT22;16623;53.632;10.016;2023-05-23T14:03:13;15.10;99.90
29713;DHT22;16623;53.632;10.016;2023-05-23T14:05:40;15.00;99.90
29713;DHT22;16623;53.632;10.016;2023-05-23T14:08:06;14.90;99.90
29713;DHT22;16623;53.632;10.016;2023-05-23T14:10:32;15.00;99.90
29713;DHT22;16623;53.632;10.016;2023-05-23T14:12:58;15.10;99.90
29713;DHT22;16623;53.632;10.016;2023-05-23T14:15:23;15.00;99.90
29713;DHT22;16623;53.632;10.016;2023-05-23T14:17:49;14.90;99.90
29713;DHT22;16623;53.632;10.016;2023-05-23T14:20:20;15.00;99.90
29713;DHT22;16623;53.632;10.016;2023-05-23T14:22:46;15.00;99.90
29713;DHT22;16623;53.632;10.016;2023-05-23T14:25:12;15.10;99.90
29713;DHT22;16623;53.632;10.016;2023-05-23T14:27:37;15.20;99.90
29713;DHT22;16623;53.632;10.016;2023-05-23T14:30:04;15.30;99.90
29713;DHT22;16623;53.632;10.016;2023-05-23T14:32:31;15.00;99.90
29713;DHT22;16623;53.632;10.016;2023-05-23T14:35:03;14.80;99.90
29713;DHT22;16623;53.632;10.016;2023-05-23T14:37:28;14.80;99.90
29713;DHT22;16623;53.632;10.016;2023-05-23T14:39:59;14.80;99.90
29713;DHT22;16623;53.632;10.016;2023-05-23T14:42:24;14.90;99.90
29713;DHT22;16623;53.632;10.016;2023-05-23T14:44:52;14.90;99.90
29713;DHT22;16623;53.632;10.016;2023-05-23T14:47:18;14.80;99.90
29713;DHT22;16623;53.632;10.016;2023-05-23T14:49:43;14.60;99.90
29713;DHT22;16623;53.632;10.016;2023-05-23T14:52:09;14.50;99.90
29713;DHT22;16623;53.632;10.016;2023-05-23T14:54:37;14.50;99.90
29713;DHT22;16623;53.632;10.016;2023-05-23T14:57:06;14.50;99.90
29713;DHT22;16623;53.632;10.016;2023-05-23T14:59:33;14.60;99.90
29713;DHT22;16623;53.632;10.016;2023-05-23T15:01:59;14.70;99.90
29713;DHT22;16623;53.632;10.016;2023-05-23T15:04:27;14.90;99.90
29713;DHT22;16623;53.632;10.016;2023-05-23T15:06:53;14.90;99.90
29713;DHT22;16623;53.632;10.016;2023-05-23T15:09:19;14.60;99.90
29713;DHT22;16623;53.632;10.016;2023-05-23T15:11:45;14.50;99.90
29713;DHT22;16623;53.632;10.016;2023-05-23T15:14:14;14.40;99.90
29713;DHT22;16623;53.632;10.016;2023-05-23T15:16:41;14.30;99.90
29713;DHT22;16623;53.632;10.016;2023-05-23T15:19:10;14.30;99.90
29713;DHT22;16623;53.632;10.016;2023-05-23T15:21:36;14.30;99.90
29713;DHT22;16623;53.632;10.016;2023-05-23T15:24:02;14.30;99.90
29713;DHT22;16623;53.632;10.016;2023-05-23T15:26:28;14.20;99.90